Welcome to Northern Hawkes Bay. New Zealand.
PWS Header
      nz Flag



Hit Counter


W3C Valid W3C Valid logo


    Wairoa

Select any of the Stations below to visit their websites.










Historic Data from Weather Underground
Select the location of interest below. Wairoa is the default. Please have patience, this Data is slow to load in.
Northern Hawkes Bay Historical Data
Daily Summary for May 15, 2017 Units:  Metric    English   Both
« Previous Day
Next Day »
Daily Weekly Monthly Yearly Custom
  High: Low: Average:
Temperature: 20.3 °C 4.3 °C 10 °C
Dew Point: 10.1 °C 4.2 °C 7.2 °C
Humidity: 99% 48% 85%
Wind Speed: 9.7km/h 0.0km/h 1.9km/h
Wind Gust: 18.3km/h - -
Wind- - NNW
Pressure: 1027.0 hPa 1024.3 hPa -
Precipitation: 0.0 mm    
Historical Graphs
 
 
Tabular Data for May 15, 2017
Time Temperature Dew Point Pressure Wind Wind Speed Wind Gust Humidity Rainfall Rate (Hourly) solar
00:00 5.6 °C 5.4 °C 1025.3 hPa Calm     99% 0.0 mm 0 W/m2
00:05 5.6 °C 5.4 °C 1025.6 hPa Calm     99% 0.0 mm 0 W/m2
00:10 5.5 °C 5.3 °C 1025.6 hPa Calm     99% 0.0 mm 0 W/m2
00:15 5.5 °C 5.3 °C 1025.3 hPa Calm     99% 0.0 mm 0 W/m2
00:20 5.6 °C 5.4 °C 1025.3 hPa Calm     99% 0.0 mm 0 W/m2
00:25 5.5 °C 5.3 °C 1025.3 hPa Calm     99% 0.0 mm 0 W/m2
00:32 5.5 °C 5.3 °C 1024.9 hPa Calm     99% 0.0 mm 0 W/m2
00:37 5.5 °C 5.3 °C 1024.9 hPa Calm     99% 0.0 mm 0 W/m2
00:42 5.5 °C 5.3 °C 1024.9 hPa Calm     99% 0.0 mm 0 W/m2
00:47 5.5 °C 5.3 °C 1024.9 hPa Calm     99% 0.0 mm 0 W/m2
00:52 5.6 °C 5.4 °C 1024.9 hPa NW 2.6 km/h 9.7 km/h 99% 0.0 mm 0 W/m2
00:55 5.6 °C 5.4 °C 1024.9 hPa NW 3.5 km/h 9.7 km/h 99% 0.0 mm 0 W/m2
01:00 5.5 °C 5.3 °C 1024.9 hPa Calm   9.7 km/h 99% 0.0 mm 0 W/m2
01:17 5.4 °C 5.3 °C 1024.9 hPa Calm     99% 0.0 mm 0 W/m2
01:22 5.4 °C 5.3 °C 1024.9 hPa Calm   8.7 km/h 99% 0.0 mm 0 W/m2
01:27 5.3 °C 5.2 °C 1024.9 hPa NNW 5.0 km/h 9.7 km/h 99% 0.0 mm 0 W/m2
01:32 5.3 °C 5.2 °C 1024.9 hPa NNW 7.2 km/h 13.4 km/h 99% 0.0 mm 0 W/m2
01:37 5.3 °C 5.2 °C 1024.9 hPa NNW 8.7 km/h 13.4 km/h 99% 0.0 mm 0 W/m2
01:42 5.3 °C 5.2 °C 1025.3 hPa NNW 2.6 km/h 13.4 km/h 99% 0.0 mm 0 W/m2
01:47 5.4 °C 5.3 °C 1025.3 hPa NW 8.7 km/h 13.4 km/h 99% 0.0 mm 0 W/m2
01:52 5.4 °C 5.3 °C 1024.9 hPa NNW 8.7 km/h 13.4 km/h 99% 0.0 mm 0 W/m2
01:57 5.3 °C 5.2 °C 1025.3 hPa NNW 3.5 km/h 13.4 km/h 99% 0.0 mm 0 W/m2
02:03 5.3 °C 5.2 °C 1025.3 hPa NNW 6.1 km/h 12.2 km/h 99% 0.0 mm 0 W/m2
02:08 5.3 °C 5.2 °C 1025.3 hPa NNW 6.1 km/h 13.4 km/h 99% 0.0 mm 0 W/m2
02:13 5.3 °C 5.2 °C 1025.3 hPa NNW 6.1 km/h 13.4 km/h 99% 0.0 mm 0 W/m2
02:18 5.2 °C 5.1 °C 1025.3 hPa NNW 2.6 km/h 12.2 km/h 99% 0.0 mm 0 W/m2
02:23 5.2 °C 5.1 °C 1025.3 hPa NNW 6.1 km/h 12.2 km/h 99% 0.0 mm 0 W/m2
02:28 5.1 °C 4.9 °C 1024.9 hPa NNW 1.1 km/h 13.4 km/h 99% 0.0 mm 0 W/m2
02:33 5.1 °C 4.9 °C 1024.9 hPa North 5.0 km/h 13.4 km/h 99% 0.0 mm 0 W/m2
02:38 5.1 °C 4.9 °C 1025.3 hPa North 6.1 km/h 12.2 km/h 99% 0.0 mm 0 W/m2
02:43 5.1 °C 4.9 °C 1024.9 hPa NNW 5.0 km/h 12.2 km/h 99% 0.0 mm 0 W/m2
02:48 5.0 °C 4.8 °C 1024.9 hPa Calm   12.2 km/h 99% 0.0 mm 0 W/m2
02:53 5.0 °C 4.8 °C 1024.9 hPa NNW 3.5 km/h 9.7 km/h 99% 0.0 mm 0 W/m2
02:58 5.0 °C 4.8 °C 1024.9 hPa NNW 3.5 km/h 9.7 km/h 99% 0.0 mm 0 W/m2
03:03 5.0 °C 4.8 °C 1024.9 hPa NNW 6.1 km/h 9.7 km/h 99% 0.0 mm 0 W/m2
03:08 5.0 °C 4.8 °C 1024.9 hPa NNW 5.0 km/h 11.1 km/h 99% 0.0 mm 0 W/m2
03:13 5.1 °C 4.9 °C 1024.9 hPa NNW 6.1 km/h 12.2 km/h 99% 0.0 mm 0 W/m2
03:18 5.1 °C 4.9 °C 1024.9 hPa NNW 7.2 km/h 12.2 km/h 99% 0.0 mm 0 W/m2
03:23 5.1 °C 4.9 °C 1024.9 hPa NW 7.2 km/h 14.8 km/h 99% 0.0 mm 0 W/m2
03:28 5.1 °C 4.9 °C 1024.9 hPa NW 7.2 km/h 14.8 km/h 99% 0.0 mm 0 W/m2
03:33 5.1 °C 4.8 °C 1024.9 hPa NNW 7.2 km/h 13.4 km/h 98% 0.0 mm 0 W/m2
03:38 5.0 °C 4.7 °C 1024.9 hPa North 6.1 km/h 13.4 km/h 98% 0.0 mm 0 W/m2
03:44 5.0 °C 4.7 °C 1024.9 hPa NNW 5.0 km/h 13.4 km/h 98% 0.0 mm 0 W/m2
03:50 5.0 °C 4.7 °C 1024.9 hPa NNW 8.7 km/h 12.2 km/h 98% 0.0 mm 0 W/m2
03:55 5.1 °C 4.8 °C 1024.9 hPa North 9.7 km/h 13.4 km/h 98% 0.0 mm 0 W/m2
04:00 5.0 °C 4.7 °C 1024.9 hPa North 5.0 km/h 14.8 km/h 98% 0.0 mm 0 W/m2
04:05 5.0 °C 4.7 °C 1024.9 hPa North 6.1 km/h 14.8 km/h 98% 0.0 mm 0 W/m2
04:11 4.9 °C 4.8 °C 1024.9 hPa NNW 7.2 km/h 13.4 km/h 99% 0.0 mm 0 W/m2
04:16 4.9 °C 4.8 °C 1024.9 hPa NNW 7.2 km/h 14.8 km/h 99% 0.0 mm 0 W/m2
04:21 4.8 °C 4.7 °C 1024.9 hPa NNW 6.1 km/h 14.8 km/h 99% 0.0 mm 0 W/m2
04:27 4.7 °C 4.6 °C 1024.6 hPa NW 6.1 km/h 12.2 km/h 99% 0.0 mm 0 W/m2
04:32 4.6 °C 4.4 °C 1024.6 hPa NNW 6.1 km/h 11.1 km/h 99% 0.0 mm 0 W/m2
04:37 4.6 °C 4.4 °C 1024.6 hPa NW 7.2 km/h 13.4 km/h 99% 0.0 mm 0 W/m2
04:42 4.6 °C 4.4 °C 1024.6 hPa NNW 5.0 km/h 13.4 km/h 99% 0.0 mm 0 W/m2
04:47 4.5 °C 4.3 °C 1024.6 hPa NNW 5.0 km/h 13.4 km/h 99% 0.0 mm 0 W/m2
04:52 4.4 °C 4.3 °C 1024.6 hPa NNW 5.0 km/h 8.7 km/h 99% 0.0 mm 0 W/m2
04:57 4.3 °C 4.2 °C 1024.3 hPa NNW 5.0 km/h 11.1 km/h 99% 0.0 mm 0 W/m2
05:02 4.3 °C 4.2 °C 1024.6 hPa NW 3.5 km/h 12.2 km/h 99% 0.0 mm 0 W/m2
05:07 4.3 °C 4.2 °C 1024.6 hPa NNW 8.7 km/h 12.2 km/h 99% 0.0 mm 0 W/m2
05:12 4.4 °C 4.3 °C 1024.6 hPa NNW 7.2 km/h 15.8 km/h 99% 0.0 mm 0 W/m2
05:17 4.5 °C 4.3 °C 1024.6 hPa NNW 7.2 km/h 15.8 km/h 99% 0.0 mm 0 W/m2
05:22 4.5 °C 4.3 °C 1024.6 hPa NNW 6.1 km/h 14.8 km/h 99% 0.0 mm 0 W/m2
05:27 4.4 °C 4.3 °C 1024.6 hPa NNW 8.7 km/h 14.8 km/h 99% 0.0 mm 0 W/m2
05:33 4.4 °C 4.3 °C 1024.9 hPa NNW 6.1 km/h 14.8 km/h 99% 0.0 mm 0 W/m2
05:40 4.3 °C 4.2 °C 1024.6 hPa NNW 5.0 km/h 13.4 km/h 99% 0.0 mm 0 W/m2
05:44 4.3 °C 4.2 °C 1024.9 hPa NNW 8.7 km/h 13.4 km/h 99% 0.0 mm 0 W/m2
05:50 4.3 °C 4.2 °C 1024.9 hPa NNW 6.1 km/h 13.4 km/h 99% 0.0 mm 0 W/m2
05:55 4.3 °C 4.2 °C 1024.9 hPa NNW 5.0 km/h 13.4 km/h 99% 0.0 mm 0 W/m2
06:00 4.3 °C 4.2 °C 1024.9 hPa NNW 6.1 km/h 12.2 km/h 99% 0.0 mm 0 W/m2
06:05 4.3 °C 4.2 °C 1024.9 hPa NNW 3.5 km/h 11.1 km/h 99% 0.0 mm 0 W/m2
06:10 4.3 °C 4.2 °C 1024.9 hPa North 3.5 km/h 11.1 km/h 99% 0.0 mm 0 W/m2
06:15 4.3 °C 4.2 °C 1024.9 hPa North 3.5 km/h 11.1 km/h 99% 0.0 mm 0 W/m2
06:20 4.3 °C 4.2 °C 1024.9 hPa NNW 2.6 km/h 7.2 km/h 99% 0.0 mm 0 W/m2
06:25 4.3 °C 4.2 °C 1025.3 hPa NNW 3.5 km/h 8.7 km/h 99% 0.0 mm 0 W/m2
06:30 4.4 °C 4.3 °C 1024.9 hPa NNW 5.0 km/h 11.1 km/h 99% 0.0 mm 0 W/m2
06:35 4.6 °C 4.4 °C 1024.9 hPa NNW 3.5 km/h 11.1 km/h 99% 0.0 mm 0 W/m2
06:40 4.6 °C 4.4 °C 1024.9 hPa NNW 5.0 km/h 11.1 km/h 99% 0.0 mm 0 W/m2
06:45 4.7 °C 4.6 °C 1024.9 hPa NNW 5.0 km/h 11.1 km/h 99% 0.0 mm 0 W/m2
06:50 4.6 °C 4.4 °C 1025.3 hPa NNW 5.0 km/h 11.1 km/h 99% 0.0 mm 0 W/m2
06:55 4.6 °C 4.4 °C 1025.3 hPa NNW 6.1 km/h 12.2 km/h 99% 0.0 mm 0 W/m2
07:00 4.6 °C 4.4 °C 1024.9 hPa NW 3.5 km/h 12.2 km/h 99% 0.0 mm 1 W/m2
07:05 4.6 °C 4.4 °C 1024.9 hPa NW 3.5 km/h 11.1 km/h 99% 0.0 mm 3 W/m2
07:10 4.5 °C 4.3 °C 1024.9 hPa NNW 6.1 km/h 9.7 km/h 99% 0.0 mm 4 W/m2
07:15 4.4 °C 4.3 °C 1025.3 hPa NNW 5.0 km/h 11.1 km/h 99% 0.0 mm 8 W/m2
07:20 4.4 °C 4.3 °C 1025.3 hPa NNW 6.1 km/h 11.1 km/h 99% 0.0 mm 12 W/m2
07:25 4.4 °C 4.3 °C 1025.3 hPa NNW 7.2 km/h 11.1 km/h 99% 0.0 mm 26 W/m2
07:30 4.5 °C 4.3 °C 1025.6 hPa NNW 9.7 km/h 14.8 km/h 99% 0.0 mm 37 W/m2
07:35 4.6 °C 4.3 °C 1025.6 hPa NNW 8.7 km/h 14.8 km/h 98% 0.0 mm 59 W/m2
07:40 4.9 °C 4.6 °C 1025.6 hPa NNW 5.0 km/h 14.8 km/h 98% 0.0 mm 71 W/m2
07:45 5.0 °C 4.6 °C 1025.6 hPa NNW 5.0 km/h 11.1 km/h 97% 0.0 mm 61 W/m2
07:50 5.0 °C 4.4 °C 1025.6 hPa NNW 6.1 km/h 11.1 km/h 96% 0.0 mm 94 W/m2
07:55 5.3 °C 4.7 °C 1025.6 hPa NNW 6.1 km/h 11.1 km/h 96% 0.0 mm 69 W/m2
08:00 5.4 °C 4.8 °C 1025.6 hPa NNW 6.1 km/h 9.7 km/h 96% 0.0 mm 123 W/m2
08:05 5.6 °C 4.9 °C 1026.0 hPa NNW 6.1 km/h 11.1 km/h 95% 0.0 mm 136 W/m2
08:07 5.8 °C 5.1 °C 1026.0 hPa NNW 7.2 km/h 11.1 km/h 95% 0.0 mm 141 W/m2
08:13 6.1 °C 5.1 °C 1026.0 hPa NNW 7.2 km/h 12.2 km/h 93% 0.0 mm 152 W/m2
08:18 6.3 °C 5.1 °C 1026.0 hPa NNW 6.1 km/h 13.4 km/h 92% 0.0 mm 165 W/m2
08:23 6.6 °C 5.2 °C 1025.6 hPa NNW 7.2 km/h 13.4 km/h 91% 0.0 mm 176 W/m2
08:28 6.7 °C 5.0 °C 1026.0 hPa North 5.0 km/h 14.8 km/h 89% 0.0 mm 186 W/m2
08:33 6.9 °C 5.1 °C 1026.0 hPa NNW 8.7 km/h 17.2 km/h 88% 0.0 mm 197 W/m2
08:38 6.9 °C 4.9 °C 1026.0 hPa NNW 8.7 km/h 18.3 km/h 87% 0.0 mm 205 W/m2
08:43 7.1 °C 4.9 °C 1026.0 hPa NNW 6.1 km/h 18.3 km/h 86% 0.0 mm 217 W/m2
08:48 7.4 °C 5.2 °C 1026.0 hPa NNW 7.2 km/h 12.2 km/h 86% 0.0 mm 228 W/m2
08:53 7.4 °C 5.1 °C 1026.0 hPa NNW 8.7 km/h 17.2 km/h 85% 0.0 mm 240 W/m2
08:58 7.6 °C 5.2 °C 1026.0 hPa NNW 5.0 km/h 17.2 km/h 85% 0.0 mm 253 W/m2
09:03 8.0 °C 5.6 °C 1026.0 hPa NNW 1.1 km/h 14.8 km/h 85% 0.0 mm 265 W/m2
09:08 8.5 °C 6.1 °C 1026.0 hPa NNW 2.6 km/h 9.7 km/h 85% 0.0 mm 275 W/m2
09:13 8.7 °C 6.0 °C 1026.0 hPa NNW 5.0 km/h 12.2 km/h 83% 0.0 mm 281 W/m2
09:18 8.8 °C 5.9 °C 1026.0 hPa NNW 3.5 km/h 14.8 km/h 82% 0.0 mm 285 W/m2
09:23 9.1 °C 5.8 °C 1026.0 hPa Calm   14.8 km/h 80% 0.0 mm 256 W/m2
09:41 10.1 °C 6.3 °C 1026.3 hPa NNW 3.5 km/h 9.7 km/h 77% 0.0 mm 117 W/m2
09:46 10.4 °C 6.6 °C 1026.3 hPa Calm   9.7 km/h 77% 0.0 mm 114 W/m2
09:51 10.5 °C 6.4 °C 1026.3 hPa Calm   9.7 km/h 76% 0.0 mm 127 W/m2
09:56 10.3 °C 6.3 °C 1026.3 hPa Calm   5.0 km/h 76% 0.0 mm 165 W/m2
10:01 10.1 °C 6.4 °C 1026.6 hPa Calm   5.0 km/h 78% 0.0 mm 175 W/m2
10:06 10.2 °C 6.7 °C 1026.6 hPa Calm     79% 0.0 mm 182 W/m2
10:11 10.4 °C 6.9 °C 1026.6 hPa Calm     79% 0.0 mm 186 W/m2
10:16 10.9 °C 7.6 °C 1026.6 hPa Calm     80% 0.0 mm 178 W/m2
10:21 10.9 °C 7.1 °C 1026.6 hPa Calm     77% 0.0 mm 161 W/m2
10:24 10.7 °C 6.8 °C 1026.6 hPa Calm     77% 0.0 mm 160 W/m2
10:29 10.9 °C 7.4 °C 1026.6 hPa Calm     79% 0.0 mm 185 W/m2
10:34 11.5 °C 7.6 °C 1026.6 hPa Calm     77% 0.0 mm 162 W/m2
10:39 11.6 °C 7.5 °C 1026.6 hPa Calm     76% 0.0 mm 276 W/m2
10:44 11.9 °C 7.6 °C 1026.6 hPa Calm     75% 0.0 mm 304 W/m2
10:50 12.5 °C 8.0 °C 1027.0 hPa Calm     74% 0.0 mm 330 W/m2
10:55 12.6 °C 7.9 °C 1026.6 hPa Calm     73% 0.0 mm 344 W/m2
11:00 12.9 °C 8.0 °C 1027.0 hPa Calm     72% 0.0 mm 351 W/m2
11:05 13.1 °C 8.4 °C 1027.0 hPa Calm     73% 0.0 mm 360 W/m2
11:10 13.3 °C 8.4 °C 1026.6 hPa Calm     72% 0.0 mm 379 W/m2
11:15 13.4 °C 8.4 °C 1026.6 hPa Calm     72% 0.0 mm 415 W/m2
11:20 13.5 °C 8.3 °C 1026.6 hPa Calm     71% 0.0 mm 199 W/m2
11:25 13.5 °C 8.8 °C 1026.6 hPa Calm     73% 0.0 mm 344 W/m2
11:30 14.1 °C 8.9 °C 1026.3 hPa Calm     71% 0.0 mm 352 W/m2
11:35 14.4 °C 8.6 °C 1026.3 hPa Calm     68% 0.0 mm 345 W/m2
11:40 14.6 °C 8.8 °C 1026.0 hPa Calm     68% 0.0 mm 344 W/m2
11:45 14.9 °C 8.8 °C 1026.0 hPa Calm     67% 0.0 mm 341 W/m2
11:50 15.1 °C 8.8 °C 1026.0 hPa Calm     66% 0.0 mm 338 W/m2
11:55 15.0 °C 8.7 °C 1026.0 hPa Calm     66% 0.0 mm 334 W/m2
12:00 15.4 °C 8.8 °C 1026.0 hPa Calm     65% 0.0 mm 327 W/m2
12:05 15.8 °C 9.0 °C 1026.0 hPa Calm     64% 0.0 mm 318 W/m2
12:10 15.7 °C 8.9 °C 1026.0 hPa Calm     64% 0.0 mm 306 W/m2
12:15 15.7 °C 8.7 °C 1025.6 hPa Calm     63% 0.0 mm 292 W/m2
12:20 15.9 °C 8.9 °C 1025.6 hPa Calm     63% 0.0 mm 272 W/m2
12:25 16.0 °C 8.7 °C 1025.3 hPa Calm     62% 0.0 mm 252 W/m2
12:30 16.0 °C 8.7 °C 1025.3 hPa Calm     62% 0.0 mm 232 W/m2
12:35 16.1 °C 8.8 °C 1025.3 hPa Calm     62% 0.0 mm 210 W/m2
12:40 16.6 °C 8.8 °C 1025.3 hPa Calm     60% 0.0 mm 182 W/m2
12:45 16.9 °C 8.6 °C 1025.3 hPa Calm     58% 0.0 mm 153 W/m2
12:50 17.7 °C 8.8 °C 1025.3 hPa Calm     56% 0.0 mm 127 W/m2
12:55 17.5 °C 8.6 °C 1025.3 hPa Calm     56% 0.0 mm 110 W/m2
13:00 18.1 °C 9.2 °C 1024.9 hPa Calm     56% 0.0 mm 104 W/m2
13:05 18.7 °C 8.7 °C 1024.9 hPa Calm     52% 0.0 mm 103 W/m2
13:10 18.0 °C 8.6 °C 1024.9 hPa Calm     54% 0.0 mm 95 W/m2
13:15 18.5 °C 8.2 °C 1024.9 hPa Calm     51% 0.0 mm 79 W/m2
13:20 18.6 °C 8.3 °C 1024.9 hPa Calm     51% 0.0 mm 68 W/m2
13:25 18.9 °C 8.6 °C 1024.6 hPa Calm     51% 0.0 mm 62 W/m2
13:30 19.0 °C 8.1 °C 1024.6 hPa Calm     49% 0.0 mm 62 W/m2
13:35 18.4 °C 7.2 °C 1024.6 hPa Calm     48% 0.0 mm 63 W/m2
13:40 18.0 °C 8.6 °C 1024.6 hPa Calm     54% 0.0 mm 63 W/m2
13:45 17.9 °C 7.1 °C 1024.6 hPa Calm     49% 0.0 mm 63 W/m2
13:50 17.9 °C 8.2 °C 1024.6 hPa Calm     53% 0.0 mm 65 W/m2
13:55 17.8 °C 8.1 °C 1024.6 hPa Calm     53% 0.0 mm 68 W/m2
14:00 18.3 °C 8.8 °C 1024.6 hPa Calm     54% 0.0 mm 69 W/m2
14:05 18.1 °C 8.9 °C 1024.9 hPa Calm     55% 0.0 mm 72 W/m2
14:10 19.5 °C 9.9 °C 1024.6 hPa Calm     54% 0.0 mm 76 W/m2
14:15 19.4 °C 8.7 °C 1024.6 hPa Calm     50% 0.0 mm 83 W/m2
14:16 19.3 °C 8.9 °C 1024.6 hPa Calm     51% 0.0 mm 85 W/m2
14:21 19.4 °C 9.0 °C 1024.9 hPa Calm     51% 0.0 mm 134 W/m2
14:26 20.3 °C 9.2 °C 1024.6 hPa Calm     49% 0.0 mm 139 W/m2
14:31 19.1 °C 8.2 °C 1024.6 hPa Calm     49% 0.0 mm 141 W/m2
14:36 18.5 °C 8.4 °C 1024.6 hPa Calm     52% 0.0 mm 187 W/m2
14:41 18.5 °C 8.7 °C 1024.6 hPa Calm     53% 0.0 mm 175 W/m2
14:46 18.8 °C 8.7 °C 1024.6 hPa Calm     52% 0.0 mm 247 W/m2
14:51 18.9 °C 9.4 °C 1024.6 hPa Calm     54% 0.0 mm 223 W/m2
14:56 18.8 °C 8.7 °C 1024.6 hPa Calm     52% 0.0 mm 148 W/m2
15:01 18.3 °C 8.6 °C 1024.6 hPa Calm     53% 0.0 mm 138 W/m2
15:06 17.8 °C 8.1 °C 1024.6 hPa Calm     53% 0.0 mm 130 W/m2
15:11 17.3 °C 7.9 °C 1024.6 hPa Calm     54% 0.0 mm 117 W/m2
15:16 17.1 °C 8.3 °C 1024.6 hPa Calm     56% 0.0 mm 110 W/m2
15:21 17.0 °C 7.9 °C 1024.9 hPa Calm     55% 0.0 mm 101 W/m2
15:26 17.1 °C 8.3 °C 1024.6 hPa Calm     56% 0.0 mm 93 W/m2
15:31 17.0 °C 8.4 °C 1024.6 hPa Calm     57% 0.0 mm 91 W/m2
15:36 17.0 °C 8.7 °C 1024.6 hPa Calm     58% 0.0 mm 86 W/m2
15:41 16.9 °C 8.8 °C 1024.6 hPa Calm     59% 0.0 mm 81 W/m2
15:46 16.8 °C 8.5 °C 1024.6 hPa Calm     58% 0.0 mm 72 W/m2
15:51 16.5 °C 8.2 °C 1024.6 hPa Calm     58% 0.0 mm 66 W/m2
15:57 16.3 °C 9.0 °C 1024.6 hPa Calm     62% 0.0 mm 60 W/m2
16:02 16.1 °C 9.3 °C 1024.6 hPa Calm     64% 0.0 mm 52 W/m2
16:07 15.9 °C 9.6 °C 1024.6 hPa Calm     66% 0.0 mm 46 W/m2
16:12 15.6 °C 9.5 °C 1024.9 hPa Calm     67% 0.0 mm 42 W/m2
16:17 15.3 °C 9.7 °C 1024.6 hPa Calm     69% 0.0 mm 39 W/m2
16:22 15.2 °C 9.6 °C 1024.9 hPa Calm     69% 0.0 mm 35 W/m2
16:27 15.0 °C 9.2 °C 1024.9 hPa Calm     68% 0.0 mm 29 W/m2
16:32 15.0 °C 9.2 °C 1024.9 hPa Calm     68% 0.0 mm 23 W/m2
16:37 14.8 °C 9.4 °C 1024.9 hPa Calm     70% 0.0 mm 19 W/m2
16:42 14.6 °C 9.4 °C 1024.9 hPa Calm     71% 0.0 mm 12 W/m2
16:47 14.5 °C 9.9 °C 1024.9 hPa Calm     74% 0.0 mm 11 W/m2
16:52 14.3 °C 9.7 °C 1024.9 hPa Calm     74% 0.0 mm 7 W/m2
16:57 14.2 °C 9.8 °C 1024.9 hPa Calm     75% 0.0 mm 5 W/m2
17:02 13.9 °C 9.7 °C 1024.9 hPa Calm     76% 0.0 mm 3 W/m2
17:07 13.7 °C 9.6 °C 1024.9 hPa Calm     76% 0.0 mm 1 W/m2
17:12 13.6 °C 9.7 °C 1024.9 hPa Calm     77% 0.0 mm 0 W/m2
17:17 13.4 °C 9.4 °C 1024.9 hPa Calm     77% 0.0 mm 0 W/m2
17:23 13.1 °C 9.2 °C 1024.9 hPa Calm     77% 0.0 mm 0 W/m2
17:28 13.0 °C 9.3 °C 1024.9 hPa Calm     78% 0.0 mm 0 W/m2
17:33 12.7 °C 9.5 °C 1024.9 hPa Calm     81% 0.0 mm 0 W/m2
17:38 12.5 °C 9.5 °C 1024.9 hPa Calm     82% 0.0 mm 0 W/m2
17:43 12.4 °C 9.6 °C 1024.9 hPa Calm     83% 0.0 mm 0 W/m2
17:48 12.2 °C 9.4 °C 1024.9 hPa Calm     83% 0.0 mm 0 W/m2
17:53 12.1 °C 9.5 °C 1024.9 hPa Calm     84% 0.0 mm 0 W/m2
17:58 12.1 °C 9.5 °C 1024.9 hPa Calm     84% 0.0 mm 0 W/m2
18:04 12.0 °C 9.6 °C 1025.3 hPa Calm     85% 0.0 mm 0 W/m2
18:09 12.0 °C 9.7 °C 1025.3 hPa Calm     86% 0.0 mm 0 W/m2
18:14 11.9 °C 9.8 °C 1024.9 hPa Calm     87% 0.0 mm 0 W/m2
18:19 11.9 °C 10.0 °C 1025.3 hPa Calm     88% 0.0 mm 0 W/m2
18:24 11.8 °C 9.9 °C 1025.3 hPa Calm     88% 0.0 mm 0 W/m2
18:29 11.7 °C 9.8 °C 1025.3 hPa Calm     88% 0.0 mm 0 W/m2
18:34 11.7 °C 9.9 °C 1025.6 hPa Calm     89% 0.0 mm 0 W/m2
18:39 11.7 °C 9.9 °C 1025.6 hPa Calm     89% 0.0 mm 0 W/m2
18:45 11.7 °C 10.1 °C 1025.3 hPa Calm     90% 0.0 mm 0 W/m2
18:50 11.6 °C 10.0 °C 1025.3 hPa Calm     90% 0.0 mm 0 W/m2
18:55 11.5 °C 9.9 °C 1025.6 hPa Calm     90% 0.0 mm 0 W/m2
19:00 11.4 °C 9.8 °C 1025.6 hPa Calm     90% 0.0 mm 0 W/m2
19:05 11.3 °C 9.9 °C 1025.6 hPa Calm     91% 0.0 mm 0 W/m2
19:10 11.3 °C 9.9 °C 1025.6 hPa Calm     91% 0.0 mm 0 W/m2
19:15 11.2 °C 9.9 °C 1025.6 hPa Calm     92% 0.0 mm 0 W/m2
19:20 11.2 °C 9.9 °C 1025.6 hPa Calm     92% 0.0 mm 0 W/m2
19:25 11.1 °C 9.8 °C 1025.6 hPa Calm     92% 0.0 mm 0 W/m2
19:30 11.0 °C 9.8 °C 1025.6 hPa Calm     92% 0.0 mm 0 W/m2
19:35 11.0 °C 9.8 °C 1025.6 hPa Calm     92% 0.0 mm 0 W/m2
19:40 10.9 °C 9.8 °C 1025.6 hPa Calm     93% 0.0 mm 0 W/m2
19:45 10.9 °C 10.0 °C 1026.0 hPa Calm     94% 0.0 mm 0 W/m2
19:50 10.8 °C 9.9 °C 1025.6 hPa Calm     94% 0.0 mm 0 W/m2
19:55 10.8 °C 9.9 °C 1026.0 hPa Calm     94% 0.0 mm 0 W/m2
20:00 10.7 °C 9.9 °C 1025.6 hPa Calm     95% 0.0 mm 0 W/m2
20:05 10.6 °C 9.8 °C 1026.0 hPa Calm     95% 0.0 mm 0 W/m2
20:10 10.6 °C 9.8 °C 1026.0 hPa Calm     95% 0.0 mm 0 W/m2
20:15 10.5 °C 9.7 °C 1026.0 hPa Calm     95% 0.0 mm 0 W/m2
20:20 10.5 °C 9.7 °C 1026.0 hPa Calm     95% 0.0 mm 0 W/m2
20:25 10.5 °C 9.9 °C 1026.0 hPa Calm     96% 0.0 mm 0 W/m2
20:30 10.5 °C 9.9 °C 1026.0 hPa Calm     96% 0.0 mm 0 W/m2
20:35 10.4 °C 9.8 °C 1026.0 hPa Calm     96% 0.0 mm 0 W/m2
20:40 10.3 °C 9.7 °C 1026.0 hPa Calm     96% 0.0 mm 0 W/m2
20:45 10.3 °C 9.7 °C 1026.0 hPa Calm     96% 0.0 mm 0 W/m2
20:50 10.2 °C 9.6 °C 1026.0 hPa Calm     96% 0.0 mm 0 W/m2
20:55 10.1 °C 9.5 °C 1026.0 hPa Calm     96% 0.0 mm 0 W/m2
21:00 10.0 °C 9.4 °C 1026.3 hPa Calm     96% 0.0 mm 0 W/m2
21:05 9.8 °C 9.3 °C 1026.0 hPa Calm     97% 0.0 mm 0 W/m2
21:10 9.8 °C 9.3 °C 1026.0 hPa Calm     97% 0.0 mm 0 W/m2
21:15 9.7 °C 9.2 °C 1026.3 hPa Calm     97% 0.0 mm 0 W/m2
21:20 9.5 °C 9.1 °C 1026.3 hPa Calm     97% 0.0 mm 0 W/m2
21:25 9.4 °C 8.9 °C 1026.3 hPa Calm     97% 0.0 mm 0 W/m2
21:30 9.2 °C 8.9 °C 1026.0 hPa Calm     98% 0.0 mm 0 W/m2
21:35 9.1 °C 8.8 °C 1026.3 hPa Calm     98% 0.0 mm 0 W/m2
21:40 9.0 °C 8.7 °C 1026.0 hPa Calm     98% 0.0 mm 0 W/m2
21:45 9.0 °C 8.7 °C 1026.3 hPa Calm     98% 0.0 mm 0 W/m2
21:50 9.0 °C 8.7 °C 1026.3 hPa Calm     98% 0.0 mm 0 W/m2
21:55 8.9 °C 8.8 °C 1026.3 hPa Calm     99% 0.0 mm 0 W/m2
22:00 9.0 °C 8.8 °C 1026.3 hPa Calm     99% 0.0 mm 0 W/m2
22:05 8.9 °C 8.8 °C 1026.3 hPa Calm     99% 0.0 mm 0 W/m2
22:10 8.9 °C 8.8 °C 1026.3 hPa Calm     99% 0.0 mm 0 W/m2
22:15 8.7 °C 8.6 °C 1026.6 hPa Calm     99% 0.0 mm 0 W/m2
22:20 8.6 °C 8.4 °C 1026.6 hPa Calm     99% 0.0 mm 0 W/m2
22:25 8.6 °C 8.4 °C 1026.6 hPa Calm     99% 0.0 mm 0 W/m2
22:30 8.5 °C 8.3 °C 1026.3 hPa Calm     99% 0.0 mm 0 W/m2
22:35 8.4 °C 8.3 °C 1026.6 hPa Calm     99% 0.0 mm 0 W/m2
22:40 8.4 °C 8.3 °C 1026.6 hPa Calm     99% 0.0 mm 0 W/m2
22:45 8.3 °C 8.2 °C 1026.3 hPa Calm     99% 0.0 mm 0 W/m2
22:50 8.2 °C 8.1 °C 1026.3 hPa Calm     99% 0.0 mm 0 W/m2
22:55 8.1 °C 7.9 °C 1026.3 hPa Calm     99% 0.0 mm 0 W/m2
23:00 8.0 °C 7.8 °C 1026.6 hPa Calm     99% 0.0 mm 0 W/m2
23:05 8.0 °C 7.8 °C 1026.3 hPa Calm     99% 0.0 mm 0 W/m2
23:10 7.9 °C 7.4 °C 1026.3 hPa Calm     97% 0.0 mm 0 W/m2
23:15 7.9 °C 7.4 °C 1026.3 hPa Calm     97% 0.0 mm 0 W/m2
23:20 7.9 °C 7.4 °C 1026.3 hPa Calm     97% 0.0 mm 0 W/m2
23:25 7.8 °C 7.3 °C 1026.3 hPa Calm     97% 0.0 mm 0 W/m2
23:30 7.7 °C 7.3 °C 1026.3 hPa Calm     97% 0.0 mm 0 W/m2
23:35 7.6 °C 7.2 °C 1026.3 hPa Calm     97% 0.0 mm 0 W/m2
23:40 7.6 °C 7.2 °C 1026.3 hPa Calm     97% 0.0 mm 0 W/m2
23:45 7.6 °C 7.2 °C 1026.3 hPa Calm     97% 0.0 mm 0 W/m2
23:50 7.6 °C 7.2 °C 1026.3 hPa Calm     97% 0.0 mm 0 W/m2
23:55 7.5 °C 7.1 °C 1026.3 hPa Calm     97% 0.0 mm 0 W/m2
Northern Hawkes Bay. New Zealand Historic Data
Compliments of Weather Underground - 2 mb